< < Back
Terminal Aerodrome Forecast


Current Version              Previous Versions:   1  2  3  4  5  6  7  8  9  

Terminal Aerodrome Forecast

522
FTUS42 KMLB 261121
TAFDAB
TAF
KDAB 261121Z 2612/2712 07005KT P6SM VCSH FEW025 SCT070
     FM261500 06012G18KT P6SM VCSH SCT025 SCT050
     FM262300 05010KT P6SM SCT030=

Latest METAR

587
SAUS80 KWBC 262000 CCA
MTRDAB
METAR KDAB 261953Z 07014KT 10SM SCT026 SCT055 SCT070 BKN200 31/23 A2999
RMK AO2 SLP155 T03110228


USA.gov is the U.S. government's official web portal to all federal, state and local government web resources and services.